Terminal Aerodrome Forecast
Issued by NWS

Home | Current Version | Previous Version | Text Only | Print | Product List | Glossary On
Versions: 1 2 3 4 5 6 7 8 9 10 11 12 13 14 15 16
000
FTUS46 KLOX 021700
TAFVNY
TAF
KVNY 021726Z 0218/0318 00000KT P6SM SKC
     FM021900 15008KT P6SM SKC
     FM030200 VRB03KT P6SM SKC
     FM030900 VRB03KT P6SM OVC012=

USA.gov is the U.S. government's official web portal to all federal, state and local government web resources and services.